This is the latest recevied weather packets stored in our database for station/object EFTP. If no packets are shown the sender has not sent any weather packets the latest 10 day(s).
| Time | Temp. | Humidity | Pressure | Rain* | Wind** | Luminosity | Snow |
|---|---|---|---|---|---|---|---|
| 1777597617 | 3.33° C | 91% | 1021.7 hPa | - | - | - | - |
| 1777596417 | 3.33° C | 91% | 1021.6 hPa | - | - | - | - |
| 1777595218 | 3.33° C | 96% | 1021.7 hPa | - | - | - | - |
| 1777594017 | 4.44° C | 90% | 1021.6 hPa | - | - | - | - |
| 1777592817 | 4.44° C | 89% | 1021.7 hPa | - | - | - | - |
| 1777591617 | 5° C | 89% | 1021.7 hPa | - | - | - | - |
| 1777590417 | 5° C | 85% | 1021.7 hPa | - | - | - | - |
| 1777589217 | 6.67° C | 81% | 1021.7 hPa | - | - | - | - |
| 1777588017 | 6.67° C | 80% | 1021.7 hPa | - | - | - | - |
| 1777586816 | 8.89° C | 71% | 1021.6 hPa | - | - | - | - |
| 1777585617 | 9.44° C | 70% | 1021.6 hPa | - | - | - | - |
| 1777584417 | 9.44° C | 69% | 1021.7 hPa | - | - | - | - |
| 1777583216 | 9.44° C | 68% | 1021.5 hPa | - | - | - | - |
| 1777582017 | 10° C | 68% | 1021.4 hPa | - | - | - | - |
| 1777580816 | 10.56° C | 66% | 1021.3 hPa | - | - | - | - |
| 1777579616 | 10.56° C | 64% | 1021.1 hPa | - | - | - | - |
| 1777578416 | 11.11° C | 63% | 1021 hPa | - | - | - | - |
| 1777577216 | 11.67° C | 61% | 1020.9 hPa | - | - | - | - |
| 1777576016 | 12.22° C | 60% | 1020.9 hPa | - | - | - | - |
| 1777574816 | 12.78° C | 58% | 1020.7 hPa | - | - | - | - |
| 1777573616 | 13.33° C | 57% | 1020.5 hPa | - | - | - | - |
| 1777572416 | 13.89° C | 56% | 1020.4 hPa | - | - | - | - |
| 1777571216 | 13.89° C | 55% | 1020.1 hPa | - | - | - | - |
| 1777570016 | 14.44° C | 54% | 1019.8 hPa | - | - | - | - |
| 1777568816 | 14.44° C | 54% | 1019.7 hPa | - | - | - | - |
* Rain since midnight (hover to see other rain measurements)
** Current wind speed in m/s (hover to see current wind gust speed)